createdAt,value
2018-10-21T00:00:56.148Z,0
2018-10-21T00:01:56.864Z,0
2018-10-21T00:02:57.851Z,0
2018-10-21T00:03:58.557Z,0
2018-10-21T00:04:59.269Z,0
2018-10-21T00:05:59.983Z,0
2018-10-21T00:07:00.704Z,0
2018-10-21T00:08:01.417Z,0
2018-10-21T00:09:02.190Z,0
2018-10-21T00:10:02.839Z,0
2018-10-21T00:11:03.546Z,0
2018-10-21T00:12:04.273Z,0
2018-10-21T00:13:05.002Z,0
2018-10-21T00:14:05.727Z,0
2018-10-21T00:15:06.487Z,0
2018-10-21T00:16:07.152Z,0
2018-10-21T00:17:07.856Z,0
2018-10-21T00:18:08.827Z,0
2018-10-21T00:19:09.566Z,0
2018-10-21T00:20:10.288Z,0
2018-10-21T00:21:11.083Z,0
2018-10-21T00:22:11.728Z,0
2018-10-21T00:23:12.463Z,0
2018-10-21T00:24:13.181Z,0
2018-10-21T00:25:13.897Z,0
2018-10-21T00:26:14.605Z,0
2018-10-21T00:27:15.408Z,0
2018-10-21T00:28:16.041Z,0
2018-10-21T00:29:16.763Z,0
2018-10-21T00:30:17.732Z,0
2018-10-21T00:31:18.454Z,0
2018-10-21T00:32:19.219Z,0
2018-10-21T00:33:19.931Z,0
2018-10-21T00:34:20.643Z,0
2018-10-21T00:35:21.364Z,0
2018-10-21T00:36:22.082Z,0
2018-10-21T00:37:22.809Z,0
2018-10-21T00:38:23.522Z,0
2018-10-21T00:39:24.242Z,0
2018-10-21T00:40:24.966Z,0
2018-10-21T00:41:25.672Z,0
2018-10-21T00:42:26.394Z,0
2018-10-21T00:43:27.367Z,0
2018-10-21T00:44:28.088Z,0
2018-10-21T00:45:28.801Z,0
2018-10-21T00:46:29.523Z,0
2018-10-21T00:47:30.236Z,0
2018-10-21T00:48:30.957Z,0
2018-10-21T00:49:31.695Z,0
2018-10-21T00:50:32.406Z,0
2018-10-21T00:51:33.120Z,0
2018-10-21T00:52:33.842Z,0
2018-10-21T00:53:34.821Z,0
2018-10-21T00:54:35.538Z,0
2018-10-21T00:55:36.250Z,0
2018-10-21T00:56:36.964Z,0
2018-10-21T00:57:37.672Z,0
2018-10-21T00:58:38.392Z,0
2018-10-21T00:59:39.109Z,0
2018-10-21T01:00:39.828Z,0
2018-10-21T01:01:40.564Z,0
2018-10-21T01:02:41.273Z,0
2018-10-21T01:03:42.004Z,0
2018-10-21T01:04:42.763Z,0
2018-10-21T01:05:43.485Z,0
2018-10-21T01:06:44.202Z,0
2018-10-21T01:07:44.912Z,0
2018-10-21T01:08:45.626Z,0
2018-10-21T01:09:46.393Z,0
2018-10-21T01:10:47.373Z,0
2018-10-21T01:11:48.085Z,0
2018-10-21T01:12:48.800Z,0
2018-10-21T01:13:49.507Z,0
2018-10-21T01:14:50.329Z,0
2018-10-21T01:15:51.002Z,0
2018-10-21T01:16:51.726Z,0
2018-10-21T01:17:52.437Z,0
2018-10-21T01:18:53.161Z,0
2018-10-21T01:19:53.868Z,0
2018-10-21T01:20:54.623Z,0
2018-10-21T01:21:55.311Z,0
2018-10-21T01:22:56.033Z,0
2018-10-21T01:23:56.752Z,0
2018-10-21T01:24:57.462Z,0
2018-10-21T01:25:58.183Z,0
2018-10-21T01:26:58.911Z,0
2018-10-21T01:27:59.631Z,0
2018-10-21T01:29:00.342Z,0
2018-10-21T01:30:01.066Z,0
2018-10-21T01:31:01.780Z,0
2018-10-21T01:32:02.515Z,0
2018-10-21T01:33:03.284Z,0
2018-10-21T01:34:03.943Z,0
2018-10-21T01:35:04.955Z,0
2018-10-21T01:36:05.702Z,0
2018-10-21T01:37:06.483Z,0
2018-10-21T01:38:07.179Z,0
2018-10-21T01:39:07.834Z,0
2018-10-21T01:40:08.588Z,0
2018-10-21T01:41:09.315Z,0
2018-10-21T01:42:10.041Z,0
2018-10-21T01:43:10.765Z,0
2018-10-21T01:44:11.511Z,0
2018-10-21T01:45:12.308Z,0
2018-10-21T01:46:12.932Z,0
2018-10-21T01:47:13.646Z,0
2018-10-21T01:48:14.620Z,0
2018-10-21T01:49:15.383Z,0
2018-10-21T01:50:16.107Z,0
2018-10-21T01:51:16.853Z,0
2018-10-21T01:52:17.540Z,0
2018-10-21T01:53:18.256Z,0
2018-10-21T01:54:19.026Z,0
2018-10-21T01:55:19.737Z,0
2018-10-21T01:56:20.452Z,0
2018-10-21T01:57:21.165Z,0
2018-10-21T01:58:21.877Z,0
2018-10-21T01:59:22.601Z,0
2018-10-21T02:00:23.324Z,0
2018-10-21T02:01:24.039Z,0
2018-10-21T02:02:24.753Z,0
2018-10-21T02:03:25.489Z,0
2018-10-21T02:04:26.193Z,0
2018-10-21T02:05:26.907Z,0
2018-10-21T02:06:27.668Z,0
2018-10-21T02:07:28.389Z,0
2018-10-21T02:08:29.101Z,0
2018-10-21T02:09:29.817Z,0
2018-10-21T02:10:30.541Z,0
2018-10-21T02:11:31.265Z,0
2018-10-21T02:12:31.974Z,0
2018-10-21T02:13:32.743Z,0
2018-10-21T02:14:33.463Z,0
2018-10-21T02:15:34.178Z,0
2018-10-21T02:16:34.885Z,0
2018-10-21T02:17:35.616Z,0
2018-10-21T02:18:36.386Z,0
2018-10-21T02:19:37.056Z,0
2018-10-21T02:20:37.781Z,0
2018-10-21T02:21:38.494Z,0
2018-10-21T02:22:39.216Z,0
2018-10-21T02:23:39.929Z,0
2018-10-21T02:24:40.647Z,0
2018-10-21T02:25:41.359Z,0
2018-10-21T02:26:42.096Z,0
2018-10-21T02:27:42.774Z,0
2018-10-21T02:28:43.525Z,0
2018-10-21T02:29:44.218Z,0
2018-10-21T02:30:44.930Z,0
2018-10-21T02:31:45.648Z,0
2018-10-21T02:32:46.357Z,0
2018-10-21T02:33:47.257Z,0
2018-10-21T02:34:47.857Z,0
2018-10-21T02:35:48.572Z,0
2018-10-21T02:36:49.289Z,0
2018-10-21T02:37:50.008Z,0
2018-10-21T02:38:50.717Z,0
2018-10-21T02:39:51.432Z,0
2018-10-21T02:40:52.155Z,0
2018-10-21T02:41:52.864Z,0
2018-10-21T02:42:53.580Z,0
2018-10-21T02:43:54.300Z,0
2018-10-21T02:44:55.039Z,0
2018-10-21T02:45:55.731Z,0
2018-10-21T02:46:56.453Z,0
2018-10-21T02:47:57.178Z,0
2018-10-21T02:48:57.908Z,0
2018-10-21T02:49:58.624Z,0
2018-10-21T02:50:59.363Z,0
2018-10-21T02:52:00.116Z,0
2018-10-21T02:53:00.836Z,0
2018-10-21T02:54:01.549Z,0
2018-10-21T02:55:02.258Z,0
2018-10-21T02:56:02.973Z,0
2018-10-21T02:57:03.704Z,0
2018-10-21T02:58:04.416Z,0
2018-10-21T02:59:05.133Z,0
2018-10-21T03:00:05.840Z,0
2018-10-21T03:01:06.568Z,0
2018-10-21T03:02:07.332Z,0
2018-10-21T03:03:08.085Z,0
2018-10-21T03:04:08.784Z,0
2018-10-21T03:05:09.507Z,0
2018-10-21T03:06:10.223Z,0
2018-10-21T03:07:10.947Z,0
2018-10-21T03:08:11.653Z,0
2018-10-21T03:09:12.434Z,0
2018-10-21T03:10:13.088Z,0
2018-10-21T03:11:13.811Z,0
2018-10-21T03:12:14.534Z,0
2018-10-21T03:13:15.258Z,0
2018-10-21T03:14:15.973Z,0
2018-10-21T03:15:16.761Z,0
2018-10-21T03:16:17.409Z,0
2018-10-21T03:17:18.137Z,0
2018-10-21T03:18:18.873Z,0
2018-10-21T03:19:19.570Z,0
2018-10-21T03:20:20.292Z,0
2018-10-21T03:21:21.349Z,0
2018-10-21T03:22:21.978Z,0
2018-10-21T03:23:22.690Z,0
2018-10-21T03:24:23.458Z,0
2018-10-21T03:25:24.184Z,0
2018-10-21T03:26:24.892Z,0
2018-10-21T03:27:25.617Z,0
2018-10-21T03:28:26.588Z,0
2018-10-21T03:29:27.358Z,0
2018-10-21T03:30:28.074Z,0
2018-10-21T03:31:28.792Z,0
2018-10-21T03:32:29.509Z,0
2018-10-21T03:33:30.312Z,0
2018-10-21T03:34:30.954Z,0
2018-10-21T03:35:31.667Z,0
2018-10-21T03:36:32.385Z,0
2018-10-21T03:37:33.151Z,0
2018-10-21T03:38:34.129Z,0
2018-10-21T03:39:34.838Z,0
2018-10-21T03:40:35.552Z,0
2018-10-21T03:41:36.271Z,0
2018-10-21T03:42:36.985Z,0
2018-10-21T03:43:37.695Z,0
2018-10-21T03:44:38.408Z,0
2018-10-21T03:45:39.125Z,0
2018-10-21T03:46:39.828Z,0
2018-10-21T03:47:40.554Z,0
2018-10-21T03:48:41.268Z,0
2018-10-21T03:49:41.988Z,0
2018-10-21T03:50:42.963Z,0
2018-10-21T03:51:43.679Z,0
2018-10-21T03:52:44.387Z,0
2018-10-21T03:53:45.345Z,0
2018-10-21T03:54:46.071Z,0
2018-10-21T03:55:47.027Z,0
2018-10-21T03:56:47.745Z,0
2018-10-21T03:57:48.460Z,0
2018-10-21T03:58:49.184Z,0
2018-10-21T03:59:49.918Z,0
2018-10-21T04:00:50.614Z,0
2018-10-21T04:01:51.384Z,0
2018-10-21T04:02:52.106Z,0
2018-10-21T04:03:52.810Z,0
2018-10-21T04:04:53.524Z,0
2018-10-21T04:05:54.235Z,0
2018-10-21T04:06:55.006Z,0
2018-10-21T04:07:55.718Z,0
2018-10-21T04:08:56.441Z,0
2018-10-21T04:09:57.211Z,0
2018-10-21T04:10:57.868Z,0
2018-10-21T04:11:58.840Z,0
2018-10-21T04:12:59.610Z,0
2018-10-21T04:14:00.327Z,0
2018-10-21T04:15:01.046Z,0
2018-10-21T04:16:01.809Z,0
2018-10-21T04:17:02.477Z,0
2018-10-21T04:18:03.201Z,0
2018-10-21T04:19:03.925Z,0
2018-10-21T04:20:04.643Z,0
2018-10-21T04:21:05.365Z,0
2018-10-21T04:22:06.151Z,0
2018-10-21T04:23:06.815Z,0
2018-10-21T04:24:07.539Z,0
2018-10-21T04:25:08.262Z,0
2018-10-21T04:26:08.992Z,0
2018-10-21T04:27:09.708Z,0
2018-10-21T04:28:10.504Z,0
2018-10-21T04:29:11.196Z,0
2018-10-21T04:30:11.912Z,0
2018-10-21T04:31:12.630Z,0
2018-10-21T04:32:13.341Z,0
2018-10-21T04:33:14.058Z,0
2018-10-21T04:34:14.837Z,0
2018-10-21T04:35:15.512Z,0
2018-10-21T04:36:16.215Z,0
2018-10-21T04:37:16.936Z,0
2018-10-21T04:38:17.655Z,0
2018-10-21T04:39:18.369Z,0
2018-10-21T04:40:19.196Z,0
2018-10-21T04:41:19.829Z,0
2018-10-21T04:42:20.540Z,0
2018-10-21T04:43:21.253Z,0
2018-10-21T04:44:22.034Z,0
2018-10-21T04:45:22.751Z,0
2018-10-21T04:46:23.528Z,0
2018-10-21T04:47:24.195Z,0
2018-10-21T04:48:24.900Z,0
2018-10-21T04:49:25.662Z,0
2018-10-21T04:50:26.378Z,0
2018-10-21T04:51:27.119Z,0
2018-10-21T04:52:27.826Z,0
2018-10-21T04:53:28.814Z,0
2018-10-21T04:54:29.659Z,0
2018-10-21T04:55:30.425Z,0
2018-10-21T04:56:31.456Z,0
2018-10-21T04:57:32.446Z,0
2018-10-21T04:58:33.268Z,0
2018-10-21T04:59:33.996Z,0
2018-10-21T05:00:34.737Z,0
2018-10-21T05:01:35.494Z,0
2018-10-21T05:02:36.455Z,0
2018-10-21T05:03:37.157Z,0
2018-10-21T05:04:37.871Z,0
2018-10-21T05:05:38.597Z,0
2018-10-21T05:06:39.310Z,0
2018-10-21T05:07:40.096Z,0
2018-10-21T05:08:40.772Z,0
2018-10-21T05:09:41.503Z,0
2018-10-21T05:10:42.214Z,0
2018-10-21T05:11:42.944Z,0
2018-10-21T05:12:43.645Z,0
2018-10-21T05:13:44.602Z,0
2018-10-21T05:14:45.326Z,0
2018-10-21T05:15:46.066Z,0
2018-10-21T05:16:46.762Z,0
2018-10-21T05:17:47.479Z,0
2018-10-21T05:18:48.182Z,0
2018-10-21T05:19:48.900Z,0
2018-10-21T05:20:49.614Z,0
2018-10-21T05:21:50.329Z,0
2018-10-21T05:22:51.153Z,0
2018-10-21T05:23:51.930Z,0
2018-10-21T05:24:53.042Z,0
2018-10-21T05:25:53.751Z,0
2018-10-21T05:26:54.463Z,4
2018-10-21T05:27:55.656Z,0
2018-10-21T05:28:56.559Z,4
2018-10-21T05:29:57.319Z,4
2018-10-21T05:30:58.081Z,4
2018-10-21T05:31:58.762Z,4
2018-10-21T05:32:59.503Z,8
2018-10-21T05:34:00.203Z,8
2018-10-21T05:35:00.968Z,12
2018-10-21T05:36:01.678Z,12
2018-10-21T05:37:02.393Z,16
2018-10-21T05:38:03.422Z,20
2018-10-21T05:39:04.071Z,20
2018-10-21T05:40:04.837Z,24
2018-10-21T05:41:05.499Z,32
2018-10-21T05:42:06.217Z,36
2018-10-21T05:43:06.945Z,44
2018-10-21T05:44:07.658Z,48
2018-10-21T05:45:08.379Z,56
2018-10-21T05:46:09.148Z,68
2018-10-21T05:47:09.861Z,76
2018-10-21T05:48:10.551Z,84
2018-10-21T05:49:11.267Z,96
2018-10-21T05:50:11.994Z,112
2018-10-21T05:51:12.719Z,128
2018-10-21T05:52:13.710Z,140
2018-10-21T05:53:14.412Z,160
2018-10-21T05:54:15.131Z,176
2018-10-21T05:55:15.843Z,196
2018-10-21T05:56:16.578Z,212
2018-10-21T05:57:17.301Z,236
2018-10-21T05:58:18.113Z,264
2018-10-21T05:59:18.738Z,304
2018-10-21T06:00:19.467Z,340
2018-10-21T06:01:20.192Z,384
2018-10-21T06:02:20.954Z,420
2018-10-21T06:03:21.685Z,460
2018-10-21T06:04:22.651Z,500
2018-10-21T06:05:23.362Z,528
2018-10-21T06:06:24.325Z,556
2018-10-21T06:07:25.293Z,588
2018-10-21T06:08:26.005Z,624
2018-10-21T06:09:26.992Z,668
2018-10-21T06:10:27.704Z,708
2018-10-21T06:11:28.422Z,736
2018-10-21T06:12:29.150Z,772
2018-10-21T06:13:29.861Z,800
2018-10-21T06:14:30.586Z,844
2018-10-21T06:15:31.356Z,892
2018-10-21T06:16:32.080Z,960
2018-10-21T06:17:32.796Z,1064
2018-10-21T06:18:33.524Z,1176
2018-10-21T06:19:34.243Z,1232
2018-10-21T06:20:34.980Z,1272
2018-10-21T06:21:35.758Z,1336
2018-10-21T06:22:36.479Z,1392
2018-10-21T06:23:37.251Z,1480
2018-10-21T06:24:37.948Z,1520
2018-10-21T06:25:38.669Z,1520
2018-10-21T06:26:39.389Z,1544
2018-10-21T06:27:40.166Z,1596
2018-10-21T06:28:40.832Z,1644
2018-10-21T06:29:41.555Z,1644
2018-10-21T06:30:42.276Z,1648
2018-10-21T06:31:43.000Z,1708
2018-10-21T06:32:43.718Z,1808
2018-10-21T06:33:44.474Z,1864
2018-10-21T06:34:45.170Z,1924
2018-10-21T06:35:45.883Z,2028
2018-10-21T06:36:46.729Z,2228
2018-10-21T06:37:47.383Z,2452
2018-10-21T06:38:48.113Z,2792
2018-10-21T06:39:48.826Z,2996
2018-10-21T06:40:49.576Z,3104
2018-10-21T06:41:50.334Z,3180
2018-10-21T06:42:51.310Z,3272
2018-10-21T06:43:52.042Z,3260
2018-10-21T06:44:52.758Z,3144
2018-10-21T06:45:53.492Z,3100
2018-10-21T06:46:54.213Z,3124
2018-10-21T06:47:54.934Z,3152
2018-10-21T06:48:55.662Z,3160
2018-10-21T06:49:56.384Z,3120
2018-10-21T06:50:57.113Z,3044
2018-10-21T06:51:57.827Z,2916
2018-10-21T06:52:58.551Z,2800
2018-10-21T06:53:59.277Z,2728
2018-10-21T06:55:00.008Z,2732
2018-10-21T06:56:00.981Z,2808
2018-10-21T06:57:01.796Z,2864
2018-10-21T06:58:02.423Z,2944
2018-10-21T06:59:03.146Z,2964
2018-10-21T07:00:03.858Z,2928
2018-10-21T07:01:04.836Z,2916
2018-10-21T07:02:05.563Z,2832
2018-10-21T07:03:06.269Z,2728
2018-10-21T07:04:07.095Z,2628
2018-10-21T07:05:07.824Z,2616
2018-10-21T07:06:08.516Z,2588
2018-10-21T07:07:09.244Z,2528
2018-10-21T07:08:09.968Z,2532
2018-10-21T07:09:10.938Z,2564
2018-10-21T07:10:11.728Z,2632
2018-10-21T07:11:12.393Z,2744
2018-10-21T07:12:13.116Z,2856
2018-10-21T07:13:13.841Z,2972
2018-10-21T07:14:14.567Z,3080
2018-10-21T07:15:15.335Z,3092
2018-10-21T07:16:16.067Z,3032
2018-10-21T07:17:16.738Z,2908
2018-10-21T07:18:17.496Z,2784
2018-10-21T07:19:18.211Z,2648
2018-10-21T07:20:18.946Z,2512
2018-10-21T07:21:19.675Z,2424
2018-10-21T07:22:20.406Z,2444
2018-10-21T07:23:21.120Z,2544
2018-10-21T07:24:21.888Z,2760
2018-10-21T07:25:22.615Z,3036
2018-10-21T07:26:23.341Z,3240
2018-10-21T07:27:24.073Z,3280
2018-10-21T07:28:25.045Z,3240
2018-10-21T07:29:25.765Z,3244
2018-10-21T07:30:26.495Z,3296
2018-10-21T07:31:27.228Z,3312
2018-10-21T07:32:27.947Z,3248
2018-10-21T07:33:28.684Z,3104
2018-10-21T07:34:29.396Z,2976
2018-10-21T07:35:30.137Z,2884
2018-10-21T07:36:30.857Z,2812
2018-10-21T07:37:31.572Z,2808
2018-10-21T07:38:32.296Z,2864
2018-10-21T07:39:33.023Z,2960
2018-10-21T07:40:33.746Z,3144
2018-10-21T07:41:34.475Z,3364
2018-10-21T07:42:35.201Z,3532
2018-10-21T07:43:35.920Z,3644
2018-10-21T07:44:36.642Z,3732
2018-10-21T07:45:37.366Z,3840
2018-10-21T07:46:38.096Z,3932
2018-10-21T07:47:38.821Z,4044
2018-10-21T07:48:39.553Z,4084
2018-10-21T07:49:40.283Z,4080
2018-10-21T07:50:41.003Z,4016
2018-10-21T07:51:41.722Z,3912
2018-10-21T07:52:42.454Z,3868
2018-10-21T07:53:43.181Z,3920
2018-10-21T07:54:43.906Z,3988
2018-10-21T07:55:44.704Z,4040
2018-10-21T07:56:45.402Z,4120
2018-10-21T07:57:46.123Z,4232
2018-10-21T07:58:46.843Z,4388
2018-10-21T07:59:47.817Z,4508
2018-10-21T08:00:48.604Z,4620
2018-10-21T08:01:49.315Z,4764
2018-10-21T08:02:50.039Z,4856
2018-10-21T08:03:50.758Z,4972
2018-10-21T08:04:51.726Z,5072
2018-10-21T08:05:52.473Z,5192
2018-10-21T08:06:53.186Z,5368
2018-10-21T08:07:53.919Z,5524
2018-10-21T08:08:54.650Z,5704
2018-10-21T08:09:55.376Z,5884
2018-10-21T08:10:56.095Z,6048
2018-10-21T08:11:56.823Z,6216
2018-10-21T08:12:57.539Z,6352
2018-10-21T08:13:58.306Z,6476
2018-10-21T08:14:59.295Z,6604
2018-10-21T08:16:00.005Z,6640
2018-10-21T08:17:00.726Z,6612
2018-10-21T08:18:01.454Z,6628
2018-10-21T08:19:02.206Z,6764
2018-10-21T08:20:02.929Z,7012
2018-10-21T08:21:03.658Z,7280
2018-10-21T08:22:04.393Z,7488
2018-10-21T08:23:05.090Z,7624
2018-10-21T08:24:05.821Z,7756
2018-10-21T08:25:06.538Z,7960
2018-10-21T08:26:07.268Z,8176
2018-10-21T08:27:08.017Z,8332
2018-10-21T08:28:08.812Z,8448
2018-10-21T08:29:09.503Z,8540
2018-10-21T08:30:10.220Z,8724
2018-10-21T08:31:10.969Z,8988
2018-10-21T08:32:11.684Z,9308
2018-10-21T08:33:12.464Z,9516
2018-10-21T08:34:13.198Z,9596
2018-10-21T08:35:13.908Z,9560
2018-10-21T08:36:14.641Z,9460
2018-10-21T08:37:15.382Z,9292
2018-10-21T08:38:16.099Z,9224
2018-10-21T08:39:16.813Z,9244
2018-10-21T08:40:17.547Z,9268
2018-10-21T08:41:18.273Z,9304
2018-10-21T08:42:19.015Z,9352
2018-10-21T08:43:19.748Z,9380
2018-10-21T08:44:20.730Z,9424
2018-10-21T08:45:21.694Z,9520
2018-10-21T08:46:22.519Z,9708
2018-10-21T08:47:23.141Z,9964
2018-10-21T08:48:23.870Z,10176
2018-10-21T08:49:24.659Z,10292
2018-10-21T08:50:25.346Z,10372
2018-10-21T08:51:26.074Z,10592
2018-10-21T08:52:26.786Z,10856
2018-10-21T08:53:27.528Z,11024
2018-10-21T08:54:28.250Z,11092
2018-10-21T08:55:28.989Z,11128
2018-10-21T08:56:29.708Z,11144
2018-10-21T08:57:30.444Z,11020
2018-10-21T08:58:31.172Z,10700
2018-10-21T08:59:31.887Z,10388
2018-10-21T09:00:32.618Z,10324
2018-10-21T09:01:33.347Z,10432
2018-10-21T09:02:34.071Z,10652
2018-10-21T09:03:34.795Z,10820
2018-10-21T09:04:35.767Z,10828
2018-10-21T09:05:36.486Z,10756
2018-10-21T09:06:37.237Z,10796
2018-10-21T09:07:37.959Z,10904
2018-10-21T09:08:38.690Z,11060
2018-10-21T09:09:39.416Z,11152
2018-10-21T09:10:40.258Z,11260
2018-10-21T09:11:40.861Z,11456
2018-10-21T09:12:41.829Z,11700
2018-10-21T09:13:42.573Z,11912
2018-10-21T09:14:43.296Z,12144
2018-10-21T09:15:44.087Z,12440
2018-10-21T09:16:44.881Z,12796
2018-10-21T09:17:45.550Z,13100
2018-10-21T09:18:46.271Z,13224
2018-10-21T09:19:47.000Z,13252
2018-10-21T09:20:47.878Z,13400
2018-10-21T09:21:48.451Z,13524
2018-10-21T09:22:49.174Z,13540
2018-10-21T09:23:50.029Z,13476
2018-10-21T09:24:50.628Z,13352
2018-10-21T09:25:51.504Z,13268
2018-10-21T09:26:52.218Z,13192
2018-10-21T09:27:52.945Z,13164
2018-10-21T09:28:53.659Z,13228
2018-10-21T09:29:54.394Z,13316
2018-10-21T09:30:55.123Z,13380
2018-10-21T09:31:55.848Z,13336
2018-10-21T09:32:56.576Z,13292
2018-10-21T09:33:57.376Z,13300
2018-10-21T09:34:58.089Z,13320
2018-10-21T09:35:58.824Z,13348
2018-10-21T09:36:59.865Z,13452
2018-10-21T09:38:00.527Z,13524
2018-10-21T09:39:01.263Z,13724
2018-10-21T09:40:02.053Z,14092
2018-10-21T09:41:02.738Z,14996
2018-10-21T09:42:03.482Z,15756
2018-10-21T09:43:04.206Z,17440
2018-10-21T09:44:04.933Z,18144
2018-10-21T09:45:05.657Z,19296
2018-10-21T09:46:06.504Z,19296
2018-10-21T09:47:07.107Z,20896
2018-10-21T09:48:07.838Z,19808
2018-10-21T09:49:08.633Z,21984
2018-10-21T09:50:09.299Z,20192
2018-10-21T09:51:10.268Z,20704
2018-10-21T09:52:11.098Z,20160
2018-10-21T09:53:11.746Z,20256
2018-10-21T09:54:12.474Z,21856
2018-10-21T09:55:13.275Z,25568
2018-10-21T09:56:13.920Z,26816
2018-10-21T09:57:14.649Z,24320
2018-10-21T09:58:15.513Z,23840
2018-10-21T09:59:16.152Z,22656
2018-10-21T10:00:16.878Z,21888
2018-10-21T10:01:17.692Z,21184
2018-10-21T10:02:18.367Z,22880
2018-10-21T10:03:19.106Z,20192
2018-10-21T10:04:19.931Z,22656
2018-10-21T10:05:20.649Z,18336
2018-10-21T10:06:21.305Z,17420
2018-10-21T10:07:22.037Z,17644
2018-10-21T10:08:23.018Z,18688
2018-10-21T10:09:23.749Z,18496
2018-10-21T10:10:24.532Z,17760
2018-10-21T10:11:25.271Z,16956
2018-10-21T10:12:25.989Z,15960
2018-10-21T10:13:26.710Z,15464
2018-10-21T10:14:27.435Z,16020
2018-10-21T10:15:28.147Z,14832
2018-10-21T10:16:28.874Z,13156
2018-10-21T10:17:29.875Z,12124
2018-10-21T10:18:30.595Z,12312
2018-10-21T10:19:31.379Z,12036
2018-10-21T10:20:32.103Z,12104
2018-10-21T10:21:32.828Z,13056
2018-10-21T10:22:33.811Z,12180
2018-10-21T10:23:34.680Z,11088
2018-10-21T10:24:35.274Z,10600
2018-10-21T10:25:36.019Z,10456
2018-10-21T10:26:36.993Z,11660
2018-10-21T10:27:37.722Z,12220
2018-10-21T10:28:38.458Z,11284
2018-10-21T10:29:39.201Z,11872
2018-10-21T10:30:39.916Z,10608
2018-10-21T10:31:40.644Z,9708
2018-10-21T10:32:41.620Z,9780
2018-10-21T10:33:42.341Z,10728
2018-10-21T10:34:43.070Z,9788
2018-10-21T10:35:43.843Z,9352
2018-10-21T10:36:44.588Z,9532
2018-10-21T10:37:45.318Z,14948
2018-10-21T10:38:46.043Z,16128
2018-10-21T10:39:46.764Z,19328
2018-10-21T10:40:47.509Z,15968
2018-10-21T10:41:48.360Z,15596
2018-10-21T10:42:49.029Z,28928
2018-10-21T10:43:49.754Z,26880
2018-10-21T10:44:50.496Z,24192
2018-10-21T10:45:51.221Z,22688
2018-10-21T10:46:52.027Z,27520
2018-10-21T10:47:52.749Z,31616
2018-10-21T10:48:53.570Z,28032
2018-10-21T10:49:54.223Z,13652
2018-10-21T10:50:54.964Z,12792
2018-10-21T10:51:55.716Z,11936
2018-10-21T10:52:56.466Z,11168
2018-10-21T10:53:57.165Z,11520
2018-10-21T10:54:57.923Z,14168
2018-10-21T10:55:58.663Z,14512
2018-10-21T10:56:59.400Z,15100
2018-10-21T10:58:00.143Z,13792
2018-10-21T10:59:00.855Z,12132
2018-10-21T11:00:01.764Z,10976
2018-10-21T11:01:02.361Z,12280
2018-10-21T11:02:03.050Z,14032
2018-10-21T11:03:03.782Z,12452
2018-10-21T11:04:04.535Z,10788
2018-10-21T11:05:05.243Z,12132
2018-10-21T11:06:06.045Z,12060
2018-10-21T11:07:06.731Z,13900
2018-10-21T11:08:07.438Z,13500
2018-10-21T11:09:08.183Z,10012
2018-10-21T11:10:08.949Z,9624
2018-10-21T11:11:09.655Z,9804
2018-10-21T11:12:10.379Z,11004
2018-10-21T11:13:11.447Z,12876
2018-10-21T11:14:12.113Z,13272
2018-10-21T11:15:12.837Z,12372
2018-10-21T11:16:13.856Z,11440
2018-10-21T11:17:14.554Z,11708
2018-10-21T11:18:15.350Z,12796
2018-10-21T11:19:16.161Z,15188
2018-10-21T11:20:16.839Z,14272
2018-10-21T11:21:17.576Z,15504
2018-10-21T11:22:18.355Z,16188
2018-10-21T11:23:19.039Z,15328
2018-10-21T11:24:19.784Z,12940
2018-10-21T11:25:20.546Z,11984
2018-10-21T11:26:21.254Z,10932
2018-10-21T11:27:22.000Z,10300
2018-10-21T11:28:22.740Z,10032
2018-10-21T11:29:23.479Z,10232
2018-10-21T11:30:24.237Z,10348
2018-10-21T11:31:24.967Z,12588
2018-10-21T11:32:25.705Z,12432
2018-10-21T11:33:26.435Z,12788
2018-10-21T11:34:27.164Z,11200
2018-10-21T11:35:27.893Z,9368
2018-10-21T11:36:28.668Z,15348
2018-10-21T11:37:29.525Z,18496
2018-10-21T11:38:30.115Z,20000
2018-10-21T11:39:30.854Z,21792
2018-10-21T11:40:31.597Z,21568
2018-10-21T11:41:32.587Z,31008
2018-10-21T11:42:33.311Z,29216
2018-10-21T11:43:34.048Z,23168
2018-10-21T11:44:34.773Z,26912
2018-10-21T11:45:35.514Z,22816
2018-10-21T11:46:36.311Z,16928
2018-10-21T11:47:36.981Z,10596
2018-10-21T11:48:37.702Z,10152
2018-10-21T11:49:38.426Z,8384
2018-10-21T11:50:39.206Z,7924
2018-10-21T11:51:39.929Z,8620
2018-10-21T11:52:40.713Z,9840
2018-10-21T11:53:41.398Z,11468
2018-10-21T11:54:42.149Z,12756
2018-10-21T11:55:42.879Z,13768
2018-10-21T11:56:43.608Z,14880
2018-10-21T11:57:44.335Z,24768
2018-10-21T11:58:45.078Z,23072
2018-10-21T11:59:45.812Z,15000
2018-10-21T12:00:46.554Z,14108
2018-10-21T12:01:47.282Z,18112
2018-10-21T12:02:48.017Z,14976
2018-10-21T12:03:48.754Z,17240
2018-10-21T12:04:49.480Z,22176
2018-10-21T12:05:50.213Z,12180
2018-10-21T12:06:50.942Z,12396
2018-10-21T12:07:51.667Z,15780
2018-10-21T12:08:52.414Z,14436
2018-10-21T12:09:53.153Z,14784
2018-10-21T12:10:53.884Z,12384
2018-10-21T12:11:54.628Z,14176
2018-10-21T12:12:55.360Z,16252
2018-10-21T12:13:56.094Z,16616
2018-10-21T12:14:56.825Z,17800
2018-10-21T12:15:57.580Z,19552
2018-10-21T12:16:58.289Z,20416
2018-10-21T12:17:59.095Z,19456
2018-10-21T12:18:59.852Z,18912
2018-10-21T12:20:00.643Z,17796
2018-10-21T12:21:01.285Z,16020
2018-10-21T12:22:02.326Z,16308
2018-10-21T12:23:03.099Z,16536
2018-10-21T12:24:03.808Z,16976
2018-10-21T12:25:04.595Z,15884
2018-10-21T12:26:05.284Z,16668
2018-10-21T12:27:06.259Z,17240
2018-10-21T12:28:07.004Z,19808
2018-10-21T12:29:07.789Z,17380
2018-10-21T12:30:08.730Z,17732
2018-10-21T12:31:09.511Z,19552
2018-10-21T12:32:10.202Z,18944
2018-10-21T12:33:10.928Z,16684
2018-10-21T12:34:11.824Z,15580
2018-10-21T12:35:12.542Z,13208
2018-10-21T12:36:13.179Z,13004
2018-10-21T12:37:13.998Z,16600
2018-10-21T12:38:14.656Z,9624
2018-10-21T12:39:15.696Z,8556
2018-10-21T12:40:16.472Z,7936
2018-10-21T12:41:17.229Z,7716
2018-10-21T12:42:17.892Z,7644
2018-10-21T12:43:18.688Z,7696
2018-10-21T12:44:19.409Z,7956
2018-10-21T12:45:20.209Z,8172
2018-10-21T12:46:20.880Z,7944
2018-10-21T12:47:21.618Z,7712
2018-10-21T12:48:22.357Z,7548
2018-10-21T12:49:23.141Z,7132
2018-10-21T12:50:23.875Z,6820
2018-10-21T12:51:24.617Z,7216
2018-10-21T12:52:25.339Z,8288
2018-10-21T12:53:26.079Z,9648
2018-10-21T12:54:26.841Z,10560
2018-10-21T12:55:27.546Z,10600
2018-10-21T12:56:28.276Z,10356
2018-10-21T12:57:29.018Z,10040
2018-10-21T12:58:29.757Z,9356
2018-10-21T12:59:30.489Z,8504
2018-10-21T13:00:31.270Z,8296
2018-10-21T13:01:32.016Z,8468
2018-10-21T13:02:33.013Z,8276
2018-10-21T13:03:33.734Z,7768
2018-10-21T13:04:34.468Z,7308
2018-10-21T13:05:35.489Z,7536
2018-10-21T13:06:36.224Z,8852
2018-10-21T13:07:36.954Z,10376
2018-10-21T13:08:37.675Z,12092
2018-10-21T13:09:38.402Z,12160
2018-10-21T13:10:39.145Z,11916
2018-10-21T13:11:39.870Z,11596
2018-10-21T13:12:40.878Z,11580
2018-10-21T13:13:41.582Z,11460
2018-10-21T13:14:42.319Z,11496
2018-10-21T13:15:43.066Z,11268
2018-10-21T13:16:43.795Z,10228
2018-10-21T13:17:44.528Z,9072
2018-10-21T13:18:45.261Z,8344
2018-10-21T13:19:46.063Z,8020
2018-10-21T13:20:46.744Z,7908
2018-10-21T13:21:47.468Z,7716
2018-10-21T13:22:48.209Z,7552
2018-10-21T13:23:48.935Z,7068
2018-10-21T13:24:49.666Z,6708
2018-10-21T13:25:50.405Z,6564
2018-10-21T13:26:51.119Z,6584
2018-10-21T13:27:51.857Z,6512
2018-10-21T13:28:52.647Z,6468
2018-10-21T13:29:53.749Z,6344
2018-10-21T13:30:54.498Z,6316
2018-10-21T13:31:55.222Z,6524
2018-10-21T13:32:56.195Z,6772
2018-10-21T13:33:56.980Z,7116
2018-10-21T13:34:57.811Z,7480
2018-10-21T13:35:58.543Z,7552
2018-10-21T13:36:59.276Z,7208
2018-10-21T13:37:59.994Z,6912
2018-10-21T13:39:00.775Z,6684
2018-10-21T13:40:01.609Z,6408
2018-10-21T13:41:02.258Z,6156
2018-10-21T13:42:03.235Z,5944
2018-10-21T13:43:03.986Z,5792
2018-10-21T13:44:04.745Z,5692
2018-10-21T13:45:05.478Z,5656
2018-10-21T13:46:06.309Z,5644
2018-10-21T13:47:06.935Z,5656
2018-10-21T13:48:07.680Z,5624
2018-10-21T13:49:08.411Z,5676
2018-10-21T13:50:09.207Z,5692
2018-10-21T13:51:09.922Z,5744
2018-10-21T13:52:10.870Z,5856
2018-10-21T13:53:11.498Z,5928
2018-10-21T13:54:12.121Z,5984
2018-10-21T13:55:12.865Z,5948
2018-10-21T13:56:13.567Z,5916